Time;durP1;ratioP1;P1;durP2;ratioP2;P2;SDS_P1;SDS_P2;PMS_P1;PMS_P2;Temp;Humidity;BMP_temperature;BMP_pressure;BME280_temperature;BME280_humidity;BME280_pressure;Samples;Min_cycle;Max_cycle;Signal;HPM_P1;HPM_P2
2022/02/26 00:00:00;;;;;;;5.47;1.27;;;1.80;99.90;;;;;;5003127;28;20199;-64
2022/02/26 00:02:30;;;;;;;5.13;1.38;;;1.80;99.90;;;;;;5004019;28;20092;-67
2022/02/26 00:04:57;;;;;;;4.97;1.60;;;1.80;99.90;;;;;;5004785;28;20070;-69
2022/02/26 00:07:24;;;;;;;9.02;1.70;;;1.80;99.90;;;;;;5003167;28;20796;-66
2022/02/26 00:09:51;;;;;;;5.90;1.35;;;1.80;99.90;;;;;;5002882;28;20050;-64
2022/02/26 00:12:18;;;;;;;6.03;1.30;;;1.90;99.90;;;;;;5004811;28;20132;-67
2022/02/26 00:14:45;;;;;;;3.10;1.02;;;1.90;99.90;;;;;;5004580;28;20683;-66
2022/02/26 00:17:12;;;;;;;3.72;1.33;;;1.90;99.90;;;;;;5001444;28;20538;-65
2022/02/26 00:19:39;;;;;;;3.20;1.35;;;1.90;99.90;;;;;;5003427;28;20127;-65
2022/02/26 00:22:06;;;;;;;6.60;1.00;;;2.00;99.90;;;;;;5003558;28;20076;-66
2022/02/26 00:24:33;;;;;;;3.90;2.13;;;2.00;99.90;;;;;;5004512;28;20141;-63
2022/02/26 00:27:00;;;;;;;4.55;2.08;;;2.00;99.90;;;;;;5002864;28;20145;-64
2022/02/26 00:29:28;;;;;;;4.50;1.23;;;1.90;99.90;;;;;;5000240;28;20462;-64
2022/02/26 00:31:55;;;;;;;5.75;1.60;;;1.90;99.90;;;;;;5002400;28;20411;-64
2022/02/26 00:34:22;;;;;;;3.15;1.15;;;1.90;99.90;;;;;;4995833;28;20042;-64
2022/02/26 00:36:49;;;;;;;5.68;1.52;;;1.90;99.90;;;;;;4997277;28;20038;-64
2022/02/26 00:39:16;;;;;;;8.32;0.98;;;1.90;99.90;;;;;;5034024;28;20493;-64
2022/02/26 00:41:44;;;;;;;3.00;1.33;;;2.00;99.90;;;;;;4982303;28;20088;-64
2022/02/26 00:44:11;;;;;;;2.08;0.95;;;1.90;99.90;;;;;;4980652;28;20042;-66
2022/02/26 00:46:40;;;;;;;8.73;1.33;;;1.90;99.90;;;;;;4983553;28;20396;-71
2022/02/26 00:51:52;;;;;;;8.73;1.33;;;1.90;99.90;;;;;;4983137;28;20054;-63
2022/02/26 00:54:19;;;;;;;5.68;1.10;;;1.90;99.90;;;;;;4983263;28;20072;-64
2022/02/26 00:56:49;;;;;;;3.77;1.90;;;2.00;99.90;;;;;;4982217;28;20054;-65
2022/02/26 00:59:15;;;;;;;4.78;1.45;;;2.00;99.90;;;;;;4981363;28;20367;-65
2022/02/26 01:01:43;;;;;;;5.28;0.90;;;2.00;99.90;;;;;;4981094;28;20104;-71
2022/02/26 01:04:10;;;;;;;3.80;1.70;;;2.00;99.90;;;;;;4987504;28;20476;-64
2022/02/26 01:06:37;;;;;;;6.85;1.40;;;2.10;99.90;;;;;;4986248;28;20081;-68
2022/02/26 01:09:04;;;;;;;4.38;1.98;;;2.10;99.90;;;;;;4983477;28;20149;-64
2022/02/26 01:11:32;;;;;;;4.70;1.35;;;2.10;99.90;;;;;;4984562;28;20128;-65
2022/02/26 01:13:59;;;;;;;6.25;1.50;;;2.10;99.90;;;;;;5003588;28;20042;-64
2022/02/26 01:16:32;;;;;;;4.35;0.80;;;2.10;99.90;;;;;;5002697;28;20104;-65
2022/02/26 01:18:59;;;;;;;4.00;1.05;;;2.10;99.90;;;;;;5002319;28;20053;-63
2022/02/26 01:21:26;;;;;;;7.80;1.23;;;2.10;99.90;;;;;;5002407;28;20141;-63
2022/02/26 01:23:53;;;;;;;3.22;0.90;;;2.10;99.90;;;;;;5001562;28;20145;-67
2022/02/26 01:26:20;;;;;;;4.80;1.10;;;2.10;99.90;;;;;;5003260;28;20049;-66
2022/02/26 01:28:48;;;;;;;1.58;0.90;;;2.10;99.90;;;;;;5000663;28;20136;-66
2022/02/26 01:31:16;;;;;;;3.55;1.05;;;2.10;99.90;;;;;;4988470;28;20043;-65
2022/02/26 01:33:43;;;;;;;5.88;2.05;;;2.10;99.90;;;;;;4981450;28;20050;-63
2022/02/26 01:36:12;;;;;;;3.15;0.93;;;2.10;99.90;;;;;;4982750;28;20713;-67
2022/02/26 01:38:39;;;;;;;3.85;1.30;;;2.10;99.90;;;;;;4982047;28;20054;-67
2022/02/26 01:41:06;;;;;;;2.10;1.20;;;2.10;99.90;;;;;;4982459;28;20070;-64
2022/02/26 01:43:34;;;;;;;6.25;1.15;;;2.10;99.90;;;;;;4907620;28;20200;-63
2022/02/26 01:46:06;;;;;;;6.82;1.52;;;2.10;99.90;;;;;;970661;28;10003077;-66
2022/02/26 01:48:36;;;;;;;2.88;0.80;;;2.10;99.90;;;;;;4996491;28;20407;-68
2022/02/26 01:51:08;;;;;;;3.17;1.05;;;2.10;99.90;;;;;;5000702;28;20372;-65
2022/02/26 01:53:37;;;;;;;3.20;1.40;;;2.10;99.90;;;;;;4998882;28;20054;-64
2022/02/26 01:56:08;;;;;;;3.97;0.68;;;2.10;99.90;;;;;;4982078;28;20072;-64
2022/02/26 01:58:36;;;;;;;2.13;1.08;;;2.10;99.90;;;;;;4999667;28;20075;-70
2022/02/26 02:01:04;;;;;;;5.65;1.20;;;2.10;99.90;;;;;;5037025;28;20045;-63
2022/02/26 02:03:32;;;;;;;2.88;0.73;;;2.10;99.90;;;;;;5003970;28;20201;-62
2022/02/26 02:06:01;;;;;;;2.88;1.00;;;2.10;99.90;;;;;;4998858;28;20164;-64
2022/02/26 02:08:28;;;;;;;3.65;0.70;;;2.10;99.90;;;;;;4995501;28;20526;-64
2022/02/26 02:10:56;;;;;;;2.10;0.93;;;2.00;99.90;;;;;;5003775;28;20207;-65
2022/02/26 02:13:23;;;;;;;3.97;0.98;;;2.10;99.90;;;;;;5002860;28;20064;-66
2022/02/26 02:15:53;;;;;;;3.25;0.90;;;2.00;99.90;;;;;;5003122;28;20445;-68
2022/02/26 02:18:21;;;;;;;3.22;1.23;;;2.00;99.90;;;;;;5001457;28;20248;-65
2022/02/26 02:20:48;;;;;;;6.57;1.30;;;2.00;99.90;;;;;;5001200;28;20125;-65
2022/02/26 02:23:15;;;;;;;2.40;0.77;;;2.00;99.90;;;;;;5000028;28;20152;-63
2022/02/26 02:25:42;;;;;;;2.75;1.05;;;2.00;99.90;;;;;;5002534;28;21351;-63
2022/02/26 02:28:09;;;;;;;3.80;0.45;;;2.00;99.90;;;;;;5001937;28;20115;-64
2022/02/26 02:30:37;;;;;;;4.43;1.30;;;2.00;99.90;;;;;;5001906;28;20695;-65
2022/02/26 02:33:05;;;;;;;5.45;1.00;;;2.00;99.90;;;;;;5001498;28;20054;-64
2022/02/26 02:35:35;;;;;;;7.03;0.93;;;2.00;99.90;;;;;;5007900;28;20046;-63
2022/02/26 02:38:10;;;;;;;4.13;1.05;;;2.00;99.90;;;;;;5009917;28;20052;-63
2022/02/26 02:40:37;;;;;;;5.72;1.38;;;2.00;99.90;;;;;;5001081;28;20141;-68
2022/02/26 02:43:05;;;;;;;2.88;1.27;;;1.90;99.90;;;;;;5002829;28;20082;-64
2022/02/26 02:45:33;;;;;;;5.72;0.70;;;1.90;99.90;;;;;;4999505;28;20050;-66
2022/02/26 02:48:00;;;;;;;3.28;1.13;;;1.90;99.90;;;;;;5006799;28;20077;-68
2022/02/26 02:50:27;;;;;;;1.52;1.38;;;1.90;99.90;;;;;;5006097;28;20901;-66
2022/02/26 02:52:55;;;;;;;3.47;0.63;;;1.90;99.90;;;;;;4990985;28;20084;-63
2022/02/26 02:55:22;;;;;;;6.45;1.23;;;1.90;99.90;;;;;;4981414;28;20066;-68
2022/02/26 02:57:50;;;;;;;1.95;0.82;;;1.90;99.90;;;;;;5002536;28;20038;-64
2022/02/26 03:00:19;;;;;;;1.13;0.85;;;1.90;99.90;;;;;;5001175;28;20149;-64
2022/02/26 03:02:47;;;;;;;3.80;0.82;;;1.90;99.90;;;;;;4997905;28;20203;-64
2022/02/26 03:05:15;;;;;;;3.35;1.02;;;1.90;99.90;;;;;;5003022;28;20096;-63
2022/02/26 03:07:43;;;;;;;3.22;0.88;;;1.90;99.90;;;;;;5007668;28;20077;-66
2022/02/26 03:10:10;;;;;;;1.98;0.73;;;1.80;99.90;;;;;;5003268;28;20173;-64
2022/02/26 03:12:37;;;;;;;3.55;0.70;;;1.80;99.90;;;;;;5007605;28;20553;-66
2022/02/26 03:15:05;;;;;;;4.20;0.93;;;1.80;99.90;;;;;;5008739;28;20078;-64
2022/02/26 03:17:32;;;;;;;0.63;0.45;;;1.80;99.90;;;;;;5000624;28;20112;-63
2022/02/26 03:19:59;;;;;;;2.35;0.80;;;1.80;99.90;;;;;;5011578;28;20202;-64
2022/02/26 03:22:31;;;;;;;1.77;0.50;;;1.80;99.90;;;;;;5003750;28;20461;-64
2022/02/26 03:24:58;;;;;;;3.22;1.70;;;1.80;99.90;;;;;;5003016;28;20049;-68
2022/02/26 03:27:25;;;;;;;2.33;0.85;;;1.70;99.90;;;;;;5004567;28;20216;-65
2022/02/26 03:29:52;;;;;;;3.08;0.82;;;1.70;99.90;;;;;;5001595;28;20073;-64
2022/02/26 03:32:21;;;;;;;3.65;1.15;;;1.70;99.90;;;;;;5004879;28;20045;-66
2022/02/26 03:34:48;;;;;;;2.05;0.70;;;1.70;99.90;;;;;;5004209;28;20072;-63
2022/02/26 03:37:16;;;;;;;4.32;1.05;;;1.80;99.90;;;;;;5003925;28;20145;-65
2022/02/26 03:39:43;;;;;;;2.58;0.52;;;1.70;99.90;;;;;;5003060;28;20394;-65
2022/02/26 03:42:11;;;;;;;1.77;0.93;;;1.70;99.90;;;;;;5010479;28;20046;-65
2022/02/26 03:44:55;;;;;;;5.38;0.77;;;1.70;99.90;;;;;;1884442;28;10023491;-64
2022/02/26 03:47:22;;;;;;;4.68;1.05;;;1.70;99.90;;;;;;3951638;28;10001090;-64
2022/02/26 03:49:51;;;;;;;6.80;0.90;;;1.70;99.90;;;;;;5005355;28;20602;-63
2022/02/26 03:52:19;;;;;;;3.10;1.27;;;1.70;99.90;;;;;;5004922;28;20129;-64
2022/02/26 03:54:47;;;;;;;5.10;0.85;;;1.70;99.90;;;;;;5004360;28;20050;-63
2022/02/26 03:57:14;;;;;;;2.50;1.05;;;1.70;99.90;;;;;;5002580;28;20129;-63
2022/02/26 03:59:41;;;;;;;7.45;5.18;;;1.70;99.90;;;;;;5005262;28;20073;-64
2022/02/26 04:02:07;;;;;;;4.65;0.88;;;1.70;99.90;;;;;;5004519;28;20069;-64
2022/02/26 04:04:35;;;;;;;1.77;0.82;;;1.70;99.90;;;;;;5004768;28;20084;-67
2022/02/26 04:07:04;;;;;;;5.00;1.45;;;1.70;99.90;;;;;;5003639;28;20053;-64
2022/02/26 04:09:31;;;;;;;3.13;0.55;;;1.70;99.90;;;;;;5002830;28;20088;-63
2022/02/26 04:11:58;;;;;;;1.48;0.60;;;1.70;99.90;;;;;;5002554;28;20337;-64
2022/02/26 04:14:26;;;;;;;0.82;0.50;;;1.60;99.90;;;;;;4995506;28;20066;-63
2022/02/26 04:16:53;;;;;;;4.55;0.93;;;1.60;99.90;;;;;;4984413;28;20478;-66
2022/02/26 04:19:20;;;;;;;1.23;0.80;;;1.60;99.90;;;;;;4983410;28;20054;-64
2022/02/26 04:21:48;;;;;;;2.63;0.63;;;1.60;99.90;;;;;;4982259;28;20209;-63
2022/02/26 04:24:16;;;;;;;2.25;1.67;;;1.60;99.90;;;;;;4982967;28;20957;-64
2022/02/26 04:26:44;;;;;;;1.90;0.93;;;1.60;99.90;;;;;;4983963;28;20140;-64
2022/02/26 04:29:11;;;;;;;4.40;0.70;;;1.60;99.90;;;;;;5014531;28;20092;-65
2022/02/26 04:31:39;;;;;;;6.50;2.25;;;1.60;99.90;;;;;;4987487;28;20089;-68
2022/02/26 04:34:06;;;;;;;5.82;1.17;;;1.60;99.90;;;;;;5004443;28;20126;-63
2022/02/26 04:36:33;;;;;;;6.45;1.35;;;1.50;99.90;;;;;;5003190;28;20773;-63
2022/02/26 04:39:00;;;;;;;3.88;1.05;;;1.60;99.90;;;;;;5004567;28;20103;-63
2022/02/26 04:41:27;;;;;;;3.30;1.25;;;1.50;99.90;;;;;;5007001;28;20125;-67
2022/02/26 04:43:55;;;;;;;6.95;0.90;;;1.50;99.90;;;;;;5006685;28;20132;-64
2022/02/26 04:46:23;;;;;;;1.73;0.80;;;1.50;99.90;;;;;;5004690;28;20073;-65
2022/02/26 04:48:50;;;;;;;5.90;0.90;;;1.50;99.90;;;;;;4990026;28;20128;-67
2022/02/26 04:51:17;;;;;;;2.65;0.50;;;1.50;99.90;;;;;;4983955;28;20085;-64
2022/02/26 04:53:44;;;;;;;6.90;1.17;;;1.50;99.90;;;;;;4982265;28;20061;-63
2022/02/26 04:56:11;;;;;;;2.53;0.90;;;1.50;99.90;;;;;;4984971;28;20160;-67
2022/02/26 04:58:39;;;;;;;2.85;1.10;;;1.40;99.90;;;;;;4982185;28;20143;-66
2022/02/26 05:01:06;;;;;;;3.20;0.90;;;1.40;99.90;;;;;;4983388;28;20043;-62
2022/02/26 05:03:33;;;;;;;2.53;1.05;;;1.40;99.90;;;;;;4979848;28;20060;-66
2022/02/26 05:06:00;;;;;;;6.30;1.35;;;1.40;99.90;;;;;;4985227;28;20069;-67
2022/02/26 05:08:27;;;;;;;3.38;0.90;;;1.40;99.90;;;;;;4981218;28;20153;-63
2022/02/26 05:10:55;;;;;;;4.63;1.25;;;1.40;99.90;;;;;;4986364;28;20038;-63
2022/02/26 05:13:23;;;;;;;5.85;1.60;;;1.40;99.90;;;;;;4978856;28;20137;-66
2022/02/26 05:15:50;;;;;;;2.33;0.68;;;1.40;99.90;;;;;;4983127;28;20518;-66
2022/02/26 05:18:17;;;;;;;5.90;0.80;;;1.40;99.90;;;;;;4981840;28;20057;-66
2022/02/26 05:20:44;;;;;;;3.25;0.75;;;1.40;99.90;;;;;;4983180;28;20706;-67
2022/02/26 05:23:11;;;;;;;4.63;1.17;;;1.40;99.90;;;;;;4982067;28;20536;-64
2022/02/26 05:25:38;;;;;;;1.10;0.75;;;1.40;99.90;;;;;;4981974;28;20204;-67
2022/02/26 05:28:06;;;;;;;5.32;1.00;;;1.40;99.90;;;;;;4982357;28;20462;-64
2022/02/26 05:30:33;;;;;;;9.80;1.02;;;1.40;99.90;;;;;;4981733;28;20156;-64
2022/02/26 05:33:00;;;;;;;2.72;1.30;;;1.40;99.90;;;;;;4982426;28;20144;-68
2022/02/26 05:35:29;;;;;;;5.65;1.10;;;1.40;99.90;;;;;;4980175;28;20710;-65
2022/02/26 05:37:57;;;;;;;2.30;0.60;;;1.40;99.90;;;;;;4983928;28;20046;-65
2022/02/26 05:40:24;;;;;;;5.18;1.35;;;1.40;99.90;;;;;;4982323;28;20617;-66
2022/02/26 05:42:51;;;;;;;4.32;1.17;;;1.40;99.90;;;;;;4925311;28;20949;-64
2022/02/26 05:45:22;;;;;;;3.05;0.65;;;1.30;99.90;;;;;;1461373;28;10023441;-63
2022/02/26 05:47:49;;;;;;;5.18;1.40;;;1.30;99.90;;;;;;3956088;28;10001273;-65
2022/02/26 05:50:16;;;;;;;5.82;1.00;;;1.30;99.90;;;;;;5002338;28;20061;-64
2022/02/26 05:52:43;;;;;;;3.80;1.10;;;1.20;99.90;;;;;;5003250;28;20058;-65
2022/02/26 05:55:10;;;;;;;7.18;0.88;;;1.30;99.90;;;;;;5002704;28;20076;-66
2022/02/26 05:57:37;;;;;;;3.42;0.70;;;1.30;99.90;;;;;;5000366;28;20160;-68
2022/02/26 06:00:05;;;;;;;5.97;1.10;;;1.30;99.90;;;;;;5001824;28;20073;-66
2022/02/26 06:02:33;;;;;;;4.07;1.02;;;1.30;99.90;;;;;;4995355;28;20065;-65
2022/02/26 06:05:01;;;;;;;3.22;1.45;;;1.30;99.90;;;;;;5001296;28;20121;-64
2022/02/26 06:07:30;;;;;;;5.28;1.00;;;1.20;99.90;;;;;;5001686;28;20165;-64
2022/02/26 06:09:57;;;;;;;3.17;0.80;;;1.20;99.90;;;;;;5002791;28;20380;-63
2022/02/26 06:12:24;;;;;;;0.63;0.52;;;1.20;99.90;;;;;;5003271;28;20129;-63
2022/02/26 06:14:51;;;;;;;2.83;0.60;;;1.20;99.90;;;;;;5002701;28;20218;-66
2022/02/26 06:17:19;;;;;;;4.50;1.52;;;1.20;99.90;;;;;;5000443;28;20061;-64
2022/02/26 06:19:47;;;;;;;7.25;0.90;;;1.20;99.90;;;;;;5001839;28;20201;-63
2022/02/26 06:22:14;;;;;;;1.75;0.70;;;1.20;99.90;;;;;;5002245;28;20132;-63
2022/02/26 06:24:42;;;;;;;4.68;1.05;;;1.20;99.90;;;;;;4989453;28;20060;-65
2022/02/26 06:27:09;;;;;;;3.05;2.38;;;1.20;99.90;;;;;;4989886;28;20564;-66
2022/02/26 06:29:36;;;;;;;7.22;0.98;;;1.20;99.90;;;;;;5001094;28;20475;-67
2022/02/26 06:32:03;;;;;;;5.35;1.55;;;1.20;99.90;;;;;;5001691;28;20078;-62
2022/02/26 06:34:30;;;;;;;7.65;1.23;;;1.20;99.90;;;;;;5002887;28;20141;-64
2022/02/26 06:36:58;;;;;;;2.75;0.90;;;1.20;99.90;;;;;;4986863;28;20054;-64
2022/02/26 06:39:26;;;;;;;4.40;0.85;;;1.20;99.90;;;;;;4980979;28;20042;-63
2022/02/26 06:41:53;;;;;;;5.00;1.40;;;1.20;99.90;;;;;;4987525;28;20113;-63
2022/02/26 06:44:20;;;;;;;1.42;0.90;;;1.20;99.90;;;;;;5001799;28;20560;-63
2022/02/26 06:46:47;;;;;;;1.52;1.17;;;1.20;99.90;;;;;;5005367;28;20048;-63
2022/02/26 06:49:15;;;;;;;3.40;1.40;;;1.20;99.90;;;;;;5004184;28;20072;-63
2022/02/26 06:51:42;;;;;;;7.28;1.88;;;1.20;99.90;;;;;;5005662;28;20085;-64
2022/02/26 06:54:09;;;;;;;6.03;1.15;;;1.30;99.90;;;;;;5006073;28;20085;-64
2022/02/26 06:56:36;;;;;;;3.72;1.35;;;1.30;99.90;;;;;;5005305;28;20650;-67
2022/02/26 06:59:03;;;;;;;2.47;0.80;;;1.20;99.90;;;;;;5005013;28;20333;-63
2022/02/26 07:01:33;;;;;;;3.35;0.70;;;1.30;99.90;;;;;;5004546;28;20746;-63
2022/02/26 07:04:01;;;;;;;7.10;0.80;;;1.30;99.90;;;;;;5005022;28;20108;-63
2022/02/26 07:06:28;;;;;;;3.40;0.57;;;1.30;99.90;;;;;;5006686;28;20192;-64
2022/02/26 07:08:55;;;;;;;2.10;0.90;;;1.30;99.90;;;;;;5005005;28;20085;-68
2022/02/26 07:11:22;;;;;;;5.07;1.33;;;1.30;99.90;;;;;;5004463;28;20062;-64
2022/02/26 07:13:49;;;;;;;2.95;0.90;;;1.30;99.90;;;;;;5003478;28;20810;-63
2022/02/26 07:16:16;;;;;;;2.42;0.80;;;1.30;99.90;;;;;;5006400;28;20049;-63
2022/02/26 07:18:43;;;;;;;3.80;0.82;;;1.40;99.90;;;;;;5003030;28;20054;-63
2022/02/26 07:21:10;;;;;;;7.50;1.30;;;1.40;99.90;;;;;;5005423;28;20141;-68
2022/02/26 07:23:39;;;;;;;1.60;0.98;;;1.40;99.90;;;;;;5003146;28;20112;-65
2022/02/26 07:26:06;;;;;;;4.63;0.90;;;1.40;99.90;;;;;;5006337;28;20649;-64
2022/02/26 07:28:33;;;;;;;5.47;1.13;;;1.40;99.90;;;;;;5001633;28;20153;-64
2022/02/26 07:31:00;;;;;;;2.47;1.23;;;1.40;99.90;;;;;;5005229;28;20049;-65
2022/02/26 07:33:28;;;;;;;3.03;0.88;;;1.40;99.90;;;;;;5001969;28;20117;-62
2022/02/26 07:35:55;;;;;;;4.18;1.35;;;1.40;99.90;;;;;;5004089;28;20042;-65
2022/02/26 07:38:22;;;;;;;1.85;0.90;;;1.40;99.90;;;;;;5002761;28;20069;-66
2022/02/26 07:40:49;;;;;;;4.93;1.20;;;1.40;99.90;;;;;;5004896;28;20068;-63
2022/02/26 07:43:16;;;;;;;2.75;0.47;;;1.40;99.90;;;;;;5003898;28;20042;-63
2022/02/26 07:45:46;;;;;;;2.85;0.88;;;1.40;99.90;;;;;;4944554;28;21119;-64
2022/02/26 07:48:14;;;;;;;7.80;1.85;;;1.40;99.90;;;;;;1352057;28;10003366;-62
2022/02/26 07:50:41;;;;;;;2.30;0.50;;;1.40;99.90;;;;;;4657856;28;10000788;-69
2022/02/26 07:53:08;;;;;;;2.30;0.60;;;1.40;99.90;;;;;;5005192;28;20069;-65
2022/02/26 07:55:37;;;;;;;9.77;1.45;;;1.40;99.90;;;;;;5001522;28;20406;-63
2022/02/26 07:58:05;;;;;;;5.10;0.95;;;1.40;99.90;;;;;;5005315;28;20054;-65
2022/02/26 08:00:32;;;;;;;1.70;0.80;;;1.40;99.90;;;;;;5002368;28;20058;-63
2022/02/26 08:03:02;;;;;;;3.55;1.13;;;1.50;99.90;;;;;;5005640;28;20085;-65
2022/02/26 08:05:30;;;;;;;2.72;0.50;;;1.50;99.90;;;;;;5000852;28;20042;-66
2022/02/26 08:07:58;;;;;;;3.78;1.00;;;1.50;99.90;;;;;;5005313;28;20137;-64
2022/02/26 08:10:26;;;;;;;1.92;0.60;;;1.60;99.90;;;;;;4994522;28;20061;-64
2022/02/26 08:12:54;;;;;;;3.60;1.13;;;1.60;99.90;;;;;;4983388;28;20054;-63
2022/02/26 08:15:23;;;;;;;4.22;0.90;;;1.60;99.90;;;;;;5000724;28;20373;-65
2022/02/26 08:17:51;;;;;;;7.47;1.13;;;1.60;99.90;;;;;;4995590;28;20050;-65
2022/02/26 08:20:19;;;;;;;3.63;0.93;;;1.60;99.90;;;;;;5005320;28;20112;-64
2022/02/26 08:22:46;;;;;;;2.50;1.10;;;1.70;99.90;;;;;;5033360;28;20054;-64
2022/02/26 08:25:13;;;;;;;4.20;1.27;;;1.70;99.90;;;;;;4986654;28;20508;-62
2022/02/26 08:27:41;;;;;;;5.53;1.73;;;1.70;99.90;;;;;;4983645;28;20145;-64
2022/02/26 08:30:10;;;;;;;4.13;1.05;;;1.70;99.90;;;;;;4984779;28;20066;-67
2022/02/26 08:32:37;;;;;;;2.50;0.77;;;1.80;99.90;;;;;;4982576;28;20096;-62
2022/02/26 08:35:05;;;;;;;3.20;0.90;;;1.80;99.90;;;;;;4985963;28;20078;-64
2022/02/26 08:37:34;;;;;;;5.28;1.25;;;1.80;99.90;;;;;;4981174;28;20652;-64
2022/02/26 08:40:02;;;;;;;4.18;1.50;;;1.80;99.90;;;;;;4984098;28;20467;-63
2022/02/26 08:42:29;;;;;;;1.88;0.70;;;1.80;99.90;;;;;;4982599;28;20145;-63
2022/02/26 08:44:56;;;;;;;4.05;1.15;;;1.80;99.90;;;;;;4984324;28;20058;-63
2022/02/26 08:47:23;;;;;;;4.68;0.75;;;1.80;99.90;;;;;;4982126;28;20054;-66
2022/02/26 08:49:50;;;;;;;2.08;0.85;;;1.90;99.90;;;;;;4984401;28;20394;-64
2022/02/26 08:52:17;;;;;;;2.53;1.20;;;1.80;99.90;;;;;;4983775;28;20496;-65
2022/02/26 08:54:44;;;;;;;3.83;0.63;;;1.90;99.90;;;;;;4983816;28;20046;-63
2022/02/26 08:57:11;;;;;;;3.83;0.93;;;1.90;99.90;;;;;;4982664;28;20088;-64
2022/02/26 08:59:37;;;;;;;3.75;0.65;;;1.90;99.90;;;;;;4981302;28;20144;-63
2022/02/26 09:02:08;;;;;;;4.57;0.80;;;1.90;99.90;;;;;;4984739;28;20050;-62
2022/02/26 09:04:36;;;;;;;6.18;2.90;;;1.90;99.90;;;;;;4983048;28;20471;-64
2022/02/26 09:07:04;;;;;;;4.63;1.10;;;1.90;99.90;;;;;;4982975;28;20061;-63
2022/02/26 09:09:31;;;;;;;5.60;1.00;;;2.00;99.90;;;;;;4979996;28;22628;-66
2022/02/26 09:12:00;;;;;;;5.63;1.45;;;2.00;99.90;;;;;;4983384;28;20512;-63
2022/02/26 09:14:27;;;;;;;5.13;0.82;;;2.00;99.90;;;;;;4982337;28;20409;-62
2022/02/26 09:16:54;;;;;;;5.10;0.70;;;2.10;99.90;;;;;;4996751;28;20066;-66
2022/02/26 09:19:21;;;;;;;5.20;1.48;;;2.00;99.90;;;;;;5000725;28;20515;-66
2022/02/26 09:21:49;;;;;;;6.63;1.35;;;2.10;99.90;;;;;;5001242;28;20602;-65
2022/02/26 09:24:16;;;;;;;5.20;1.00;;;2.10;99.90;;;;;;5004569;28;20145;-66
2022/02/26 09:26:43;;;;;;;6.30;0.80;;;2.10;99.90;;;;;;5000731;28;20096;-62
2022/02/26 09:29:10;;;;;;;3.30;0.88;;;2.20;99.90;;;;;;5000455;28;20089;-67
2022/02/26 09:31:40;;;;;;;4.53;0.88;;;2.10;99.90;;;;;;4999575;28;20053;-67
2022/02/26 09:34:10;;;;;;;2.15;0.88;;;2.10;99.90;;;;;;5002976;28;20077;-68
2022/02/26 09:36:37;;;;;;;1.13;0.73;;;2.20;99.90;;;;;;5002625;28;20042;-66
2022/02/26 09:39:04;;;;;;;3.38;0.70;;;2.20;99.90;;;;;;5003367;28;20092;-65
2022/02/26 09:41:31;;;;;;;4.68;1.10;;;2.10;99.90;;;;;;5000216;28;20046;-62
2022/02/26 09:44:00;;;;;;;7.93;1.88;;;2.10;99.90;;;;;;5006072;28;20504;-63
2022/02/26 09:46:28;;;;;;;3.35;2.25;;;2.20;99.90;;;;;;4924367;28;21369;-63
2022/02/26 09:48:55;;;;;;;3.13;1.00;;;2.20;99.90;;;;;;975807;28;10002014;-68
2022/02/26 09:51:23;;;;;;;5.40;1.42;;;2.20;99.90;;;;;;4999459;28;20306;-64
2022/02/26 09:53:51;;;;;;;2.05;0.93;;;2.20;99.90;;;;;;5000964;28;20046;-65
2022/02/26 09:56:22;;;;;;;4.78;1.17;;;2.20;99.90;;;;;;5002208;28;20065;-67
2022/02/26 09:58:50;;;;;;;3.15;0.60;;;2.20;99.90;;;;;;4997519;28;20049;-63
2022/02/26 10:01:17;;;;;;;1.95;0.57;;;2.20;99.90;;;;;;5001500;28;20421;-62
2022/02/26 10:03:45;;;;;;;1.02;0.57;;;2.30;99.90;;;;;;4998190;28;20081;-66
2022/02/26 10:06:17;;;;;;;10.07;2.00;;;2.20;99.90;;;;;;5002686;28;20046;-65
2022/02/26 10:08:48;;;;;;;3.08;0.40;;;2.20;99.90;;;;;;5002466;28;20049;-64
2022/02/26 10:11:33;;;;;;;4.95;0.77;;;2.30;99.90;;;;;;5000942;28;20104;-65
2022/02/26 10:14:04;;;;;;;2.10;0.70;;;2.30;99.90;;;;;;5001724;28;20700;-66
2022/02/26 10:17:01;;;;;;;7.15;2.03;;;2.30;99.90;;;;;;5003525;28;20767;-64
2022/02/26 10:19:34;;;;;;;5.57;1.10;;;2.30;99.90;;;;;;4995696;28;20129;-63
2022/02/26 10:22:08;;;;;;;6.45;1.15;;;2.40;99.90;;;;;;5004731;28;20515;-67
2022/02/26 10:24:37;;;;;;;6.55;1.67;;;2.50;99.90;;;;;;5005406;28;20046;-62
2022/02/26 10:27:09;;;;;;;3.53;1.08;;;2.50;99.90;;;;;;5005308;28;20084;-65
2022/02/26 10:29:39;;;;;;;9.57;1.52;;;2.50;99.90;;;;;;5002514;28;20124;-63
2022/02/26 10:32:07;;;;;;;6.03;1.38;;;2.50;99.90;;;;;;5005666;28;20735;-64
2022/02/26 10:34:37;;;;;;;4.03;0.85;;;2.50;99.90;;;;;;5006952;28;20065;-62
2022/02/26 10:37:11;;;;;;;5.50;1.13;;;2.50;99.90;;;;;;5004363;28;20117;-63
2022/02/26 10:39:46;;;;;;;3.75;1.25;;;2.60;99.90;;;;;;4989712;28;20054;-64
2022/02/26 10:42:31;;;;;;;3.45;0.80;;;2.60;99.90;;;;;;5004156;28;20137;-64
2022/02/26 10:45:13;;;;;;;5.00;1.17;;;2.50;99.90;;;;;;5002685;28;20081;-64
2022/02/26 10:47:42;;;;;;;6.95;1.63;;;2.60;99.90;;;;;;4987190;28;20100;-67
2022/02/26 10:50:19;;;;;;;1.30;1.10;;;2.50;99.90;;;;;;5006643;28;20060;-65
2022/02/26 10:52:57;;;;;;;4.32;0.85;;;2.70;99.90;;;;;;5004565;28;20057;-64
2022/02/26 10:55:57;;;;;;;3.88;1.05;;;2.70;99.90;;;;;;5004026;28;20196;-67
2022/02/26 10:58:27;;;;;;;5.40;1.10;;;2.70;99.90;;;;;;5005379;28;20053;-67
2022/02/26 11:01:20;;;;;;;3.10;0.82;;;2.70;99.90;;;;;;5004607;28;20081;-65
2022/02/26 11:03:47;;;;;;;5.28;1.08;;;2.70;99.90;;;;;;5000530;28;20519;-65
2022/02/26 11:06:14;;;;;;;12.52;1.38;;;2.70;99.90;;;;;;5004753;28;20057;-64
2022/02/26 11:08:43;;;;;;;12.98;2.50;;;2.70;99.90;;;;;;5005413;28;20148;-64
2022/02/26 11:11:11;;;;;;;5.15;1.40;;;2.70;99.90;;;;;;5005894;28;20141;-65
2022/02/26 11:13:43;;;;;;;6.93;1.27;;;2.70;99.90;;;;;;5001712;28;20050;-65
2022/02/26 11:16:13;;;;;;;2.92;1.17;;;2.70;99.90;;;;;;5005000;28;20057;-64
2022/02/26 11:18:48;;;;;;;8.38;1.58;;;2.60;99.90;;;;;;5004816;28;20695;-63
2022/02/26 11:21:17;;;;;;;3.30;1.33;;;2.60;99.90;;;;;;5002548;28;20104;-65
2022/02/26 11:23:46;;;;;;;4.63;1.20;;;2.70;99.90;;;;;;4996582;28;20150;-63
2022/02/26 11:26:16;;;;;;;4.65;0.93;;;2.70;99.90;;;;;;5003475;28;20049;-68
2022/02/26 11:28:50;;;;;;;6.05;1.02;;;2.70;99.90;;;;;;5002831;28;20046;-63
2022/02/26 11:31:32;;;;;;;8.90;1.92;;;2.70;99.90;;;;;;5003594;28;20060;-64
2022/02/26 11:34:00;;;;;;;4.80;1.10;;;2.60;99.90;;;;;;5001181;28;20046;-62
2022/02/26 11:36:46;;;;;;;3.22;0.60;;;2.50;99.90;;;;;;5005171;28;20093;-63
2022/02/26 11:39:29;;;;;;;12.07;1.30;;;2.50;99.90;;;;;;5001829;28;20045;-65
2022/02/26 11:42:27;;;;;;;4.90;1.92;;;2.60;99.90;;;;;;5004567;28;20057;-66
2022/02/26 11:45:17;;;;;;;6.60;3.00;;;2.60;99.90;;;;;;3308161;28;10022259;-64
2022/02/26 11:47:52;;;;;;;4.75;1.27;;;2.60;99.90;;;;;;3276361;28;10001948;-67
2022/02/26 11:50:30;;;;;;;4.22;1.52;;;2.60;99.90;;;;;;5006027;28;20053;-64
2022/02/26 11:52:58;;;;;;;3.28;0.60;;;2.70;99.90;;;;;;5004240;28;20104;-66
2022/02/26 11:56:03;;;;;;;8.20;1.10;;;2.60;99.90;;;;;;4998306;28;20084;-64
2022/02/26 11:58:33;;;;;;;8.20;1.33;;;2.60;99.90;;;;;;5002445;28;20054;-64
2022/02/26 12:01:15;;;;;;;5.75;1.35;;;2.60;99.90;;;;;;5004390;28;20053;-65
2022/02/26 12:03:42;;;;;;;2.45;0.73;;;2.70;99.90;;;;;;5006358;28;20057;-63
2022/02/26 12:06:09;;;;;;;7.28;1.13;;;2.80;99.90;;;;;;5006504;28;20124;-67
2022/02/26 12:08:44;;;;;;;4.55;2.35;;;2.90;99.90;;;;;;5003299;28;20054;-63
2022/02/26 12:11:30;;;;;;;13.13;1.35;;;2.80;99.90;;;;;;5004977;28;20108;-66
2022/02/26 12:13:59;;;;;;;8.63;1.38;;;2.70;99.90;;;;;;5003329;28;20104;-63
2022/02/26 12:16:31;;;;;;;9.48;0.90;;;2.80;99.90;;;;;;4993239;28;20685;-64
2022/02/26 12:19:05;;;;;;;6.20;1.17;;;2.90;99.90;;;;;;4996063;28;20521;-62
2022/02/26 12:21:45;;;;;;;10.55;1.77;;;2.80;99.90;;;;;;5002324;28;20049;-62
2022/02/26 12:24:16;;;;;;;10.48;1.17;;;2.70;99.90;;;;;;4996289;28;20141;-63
2022/02/26 12:26:58;;;;;;;8.15;1.35;;;2.70;99.90;;;;;;4997556;28;20053;-63
2022/02/26 12:29:43;;;;;;;1.98;0.95;;;2.80;99.90;;;;;;4996825;28;20116;-62
2022/02/26 12:32:22;;;;;;;6.68;1.25;;;2.80;99.90;;;;;;4996750;28;20054;-64
2022/02/26 12:35:07;;;;;;;5.85;0.98;;;2.80;99.90;;;;;;4983672;28;20046;-67
2022/02/26 12:37:41;;;;;;;4.90;2.45;;;2.90;99.90;;;;;;5001334;28;20420;-65
2022/02/26 12:40:11;;;;;;;1.88;0.80;;;2.60;99.90;;;;;;5002895;28;20058;-64
2022/02/26 12:42:43;;;;;;;14.98;1.98;;;2.50;99.90;;;;;;5013003;28;20131;-65
2022/02/26 12:45:13;;;;;;;2.17;0.75;;;2.50;99.90;;;;;;5002480;28;20413;-65
2022/02/26 12:47:41;;;;;;;3.30;0.82;;;2.60;99.90;;;;;;4981832;28;20053;-65
2022/02/26 12:50:11;;;;;;;6.65;1.90;;;2.60;99.90;;;;;;4984828;28;20056;-68
2022/02/26 12:52:39;;;;;;;3.35;0.90;;;2.70;99.90;;;;;;4982856;28;20157;-68
2022/02/26 12:55:17;;;;;;;2.95;0.93;;;2.80;99.90;;;;;;4998910;28;20130;-65
2022/02/26 12:57:47;;;;;;;5.55;1.15;;;2.80;99.90;;;;;;4999247;28;20116;-66
2022/02/26 13:00:20;;;;;;;16.35;1.60;;;2.70;99.90;;;;;;5003610;28;20558;-63
2022/02/26 13:03:00;;;;;;;6.22;2.45;;;2.70;99.90;;;;;;4988081;28;20180;-65
2022/02/26 13:05:30;;;;;;;1.85;1.30;;;2.70;99.90;;;;;;4983175;28;20047;-63
2022/02/26 13:07:57;;;;;;;2.60;1.10;;;2.80;99.90;;;;;;4987020;28;20076;-63